createdAt,value
2022-09-28T00:01:08.731Z,100.00
2022-09-28T00:03:36.903Z,100.00
2022-09-28T00:06:07.516Z,100.00
2022-09-28T00:08:37.660Z,100.00
2022-09-28T00:11:07.539Z,100.00
2022-09-28T00:13:36.287Z,100.00
2022-09-28T00:16:06.621Z,100.00
2022-09-28T00:18:36.106Z,100.00
2022-09-28T00:21:06.607Z,100.00
2022-09-28T00:23:35.020Z,100.00
2022-09-28T00:26:05.755Z,100.00
2022-09-28T00:28:34.301Z,100.00
2022-09-28T00:31:05.193Z,100.00
2022-09-28T00:33:33.495Z,100.00
2022-09-28T00:36:03.503Z,100.00
2022-09-28T00:38:34.124Z,100.00
2022-09-28T00:41:02.079Z,100.00
2022-09-28T00:43:34.128Z,100.00
2022-09-28T00:46:07.240Z,100.00
2022-09-28T00:48:39.496Z,100.00
2022-09-28T00:53:05.523Z,100.00
2022-09-28T00:55:38.372Z,100.00
2022-09-28T00:58:11.668Z,100.00
2022-09-28T01:00:42.821Z,100.00
2022-09-28T01:03:11.733Z,100.00
2022-09-28T01:05:40.892Z,100.00
2022-09-28T01:08:11.663Z,100.00
2022-09-28T01:10:41.244Z,100.00
2022-09-28T01:13:09.193Z,100.00
2022-09-28T01:15:44.628Z,100.00
2022-09-28T01:18:23.270Z,100.00
2022-09-28T01:21:02.107Z,100.00
2022-09-28T01:24:09.558Z,100.00
2022-09-28T01:27:00.687Z,100.00
2022-09-28T01:29:51.587Z,100.00
2022-09-28T01:32:33.073Z,100.00
2022-09-28T01:35:08.785Z,100.00
2022-09-28T01:37:45.737Z,100.00
2022-09-28T01:40:18.332Z,100.00
2022-09-28T01:42:56.899Z,100.00
2022-09-28T01:45:29.076Z,100.00
2022-09-28T01:48:02.861Z,100.00
2022-09-28T01:50:37.562Z,100.00
2022-09-28T01:53:14.174Z,100.00
2022-09-28T01:55:46.686Z,100.00
2022-09-28T01:58:24.259Z,100.00
2022-09-28T02:01:02.620Z,100.00
2022-09-28T02:03:34.297Z,100.00
2022-09-28T02:06:07.874Z,100.00
2022-09-28T02:08:42.051Z,100.00
2022-09-28T02:11:13.970Z,100.00
2022-09-28T02:13:47.334Z,100.00
2022-09-28T02:16:22.567Z,100.00
2022-09-28T02:18:51.873Z,100.00
2022-09-28T02:21:26.845Z,100.00
2022-09-28T02:23:59.909Z,100.00
2022-09-28T02:26:54.863Z,100.00
2022-09-28T02:29:24.661Z,100.00
2022-09-28T02:31:55.344Z,100.00
2022-09-28T02:34:24.258Z,100.00
2022-09-28T02:36:52.460Z,100.00
2022-09-28T02:39:20.352Z,100.00
2022-09-28T02:41:56.931Z,100.00
2022-09-28T02:44:41.114Z,100.00
2022-09-28T02:47:18.583Z,100.00
2022-09-28T02:49:52.814Z,100.00
2022-09-28T02:52:46.028Z,100.00
2022-09-28T02:55:31.907Z,100.00
2022-09-28T02:58:18.733Z,100.00
2022-09-28T03:00:58.419Z,100.00
2022-09-28T03:03:34.691Z,100.00
2022-09-28T03:06:05.860Z,100.00
2022-09-28T03:08:50.139Z,100.00
2022-09-28T03:11:22.539Z,100.00
2022-09-28T03:13:52.890Z,100.00
2022-09-28T03:16:31.992Z,100.00
2022-09-28T03:19:03.595Z,100.00
2022-09-28T03:21:36.667Z,100.00
2022-09-28T03:24:06.041Z,100.00
2022-09-28T03:26:34.262Z,100.00
2022-09-28T03:29:02.743Z,100.00
2022-09-28T03:31:35.253Z,100.00
2022-09-28T03:34:05.953Z,100.00
2022-09-28T03:36:34.337Z,100.00
2022-09-28T03:39:04.639Z,100.00
2022-09-28T03:41:32.884Z,100.00
2022-09-28T03:44:01.179Z,100.00
2022-09-28T03:46:34.894Z,100.00
2022-09-28T03:49:08.619Z,100.00
2022-09-28T03:51:36.904Z,100.00
2022-09-28T03:54:06.001Z,100.00
2022-09-28T03:56:34.694Z,100.00
2022-09-28T03:59:03.817Z,100.00
2022-09-28T04:01:32.124Z,100.00
2022-09-28T04:04:06.529Z,100.00
2022-09-28T04:06:34.989Z,100.00
2022-09-28T04:09:06.180Z,100.00
2022-09-28T04:11:59.450Z,100.00
2022-09-28T04:14:22.959Z,100.00
2022-09-28T04:16:56.050Z,100.00
2022-09-28T04:19:28.118Z,100.00
2022-09-28T04:22:14.747Z,100.00
2022-09-28T04:24:43.685Z,100.00
2022-09-28T04:27:40.170Z,100.00
2022-09-28T04:30:12.610Z,100.00
2022-09-28T04:32:42.719Z,100.00
2022-09-28T04:35:12.915Z,100.00
2022-09-28T04:37:41.207Z,100.00
2022-09-28T04:40:10.288Z,100.00
2022-09-28T04:42:39.299Z,100.00
2022-09-28T04:45:15.574Z,100.00
2022-09-28T04:47:46.235Z,100.00
2022-09-28T04:50:54.499Z,100.00
2022-09-28T04:53:25.139Z,100.00
2022-09-28T04:56:00.458Z,100.00
2022-09-28T04:58:29.927Z,100.00
2022-09-28T05:00:59.592Z,100.00
2022-09-28T05:03:48.725Z,100.00
2022-09-28T05:06:28.561Z,100.00
2022-09-28T05:09:02.896Z,100.00
2022-09-28T05:11:30.904Z,100.00
2022-09-28T05:13:59.393Z,100.00
2022-09-28T05:16:28.529Z,100.00
2022-09-28T05:19:17.512Z,100.00
2022-09-28T05:21:49.693Z,100.00
2022-09-28T05:24:20.391Z,100.00
2022-09-28T05:26:55.311Z,100.00
2022-09-28T05:29:23.885Z,100.00
2022-09-28T05:31:57.839Z,100.00
2022-09-28T05:34:44.690Z,100.00
2022-09-28T05:37:20.766Z,100.00
2022-09-28T05:39:49.054Z,100.00
2022-09-28T05:42:33.488Z,100.00
2022-09-28T05:45:03.491Z,100.00
2022-09-28T05:47:31.581Z,100.00
2022-09-28T05:50:01.876Z,100.00
2022-09-28T05:54:05.619Z,100.00
2022-09-28T05:56:35.207Z,100.00
2022-09-28T05:59:06.156Z,100.00
2022-09-28T06:01:34.766Z,100.00
2022-09-28T06:04:26.593Z,100.00
2022-09-28T06:06:55.057Z,100.00
2022-09-28T06:09:25.998Z,100.00
2022-09-28T06:11:59.929Z,100.00
2022-09-28T06:14:36.333Z,100.00
2022-09-28T06:17:04.596Z,100.00
2022-09-28T06:19:32.513Z,100.00
2022-09-28T06:22:08.993Z,100.00
2022-09-28T06:24:47.330Z,100.00
2022-09-28T06:27:15.669Z,100.00
2022-09-28T06:29:46.098Z,100.00
2022-09-28T06:32:14.388Z,100.00
2022-09-28T06:34:44.305Z,100.00
2022-09-28T06:37:14.938Z,100.00
2022-09-28T06:39:42.839Z,100.00
2022-09-28T06:42:12.507Z,100.00
2022-09-28T06:45:00.487Z,100.00
2022-09-28T06:48:02.059Z,100.00
2022-09-28T06:50:41.695Z,100.00
2022-09-28T06:53:28.320Z,100.00
2022-09-28T06:56:00.481Z,100.00
2022-09-28T06:58:33.909Z,100.00
2022-09-28T07:01:03.511Z,98.89
2022-09-28T07:03:44.460Z,100.00
2022-09-28T07:06:31.469Z,97.59
2022-09-28T07:09:31.227Z,95.55
2022-09-28T07:12:16.932Z,91.69
2022-09-28T07:14:56.355Z,87.66
2022-09-28T07:17:25.908Z,91.40
2022-09-28T07:20:00.414Z,83.18
2022-09-28T07:22:42.991Z,82.71
2022-09-28T07:25:14.977Z,76.73
2022-09-28T07:28:03.307Z,79.12
2022-09-28T07:30:53.285Z,75.86
2022-09-28T07:33:39.927Z,85.82
2022-09-28T07:36:27.104Z,92.89
2022-09-28T07:38:55.373Z,99.40
2022-09-28T07:41:32.566Z,100.00
2022-09-28T07:44:06.462Z,100.00
2022-09-28T07:46:41.122Z,100.00
2022-09-28T07:49:19.229Z,100.00
2022-09-28T07:51:58.135Z,100.00
2022-09-28T07:54:30.296Z,100.00
2022-09-28T07:56:58.409Z,100.00
2022-09-28T07:59:41.502Z,84.43
2022-09-28T08:02:35.558Z,76.46
2022-09-28T08:05:03.546Z,72.02
2022-09-28T08:07:38.274Z,72.28
2022-09-28T08:10:12.211Z,68.53
2022-09-28T08:13:02.938Z,69.82
2022-09-28T08:15:51.110Z,79.38
2022-09-28T08:18:49.623Z,82.12
2022-09-28T08:21:35.159Z,78.41
2022-09-28T08:24:03.105Z,82.43
2022-09-28T08:26:31.163Z,89.19
2022-09-28T08:28:59.549Z,86.56
2022-09-28T08:31:53.862Z,71.41
2022-09-28T08:34:40.540Z,61.99
2022-09-28T08:37:14.709Z,54.41
2022-09-28T08:39:42.646Z,52.90
2022-09-28T08:42:43.052Z,54.10
2022-09-28T08:45:34.954Z,52.45
2022-09-28T08:48:51.815Z,51.06
2022-09-28T08:52:07.089Z,56.28
2022-09-28T08:55:01.634Z,56.82
2022-09-28T08:57:45.102Z,58.45
2022-09-28T09:00:23.953Z,55.84
2022-09-28T09:02:52.730Z,55.33
2022-09-28T09:05:45.296Z,59.32
2022-09-28T09:08:40.459Z,53.62
2022-09-28T09:11:20.145Z,51.74
2022-09-28T09:14:06.338Z,58.02
2022-09-28T09:16:59.850Z,51.90
2022-09-28T09:19:53.998Z,51.71
2022-09-28T09:22:49.012Z,56.44
2022-09-28T09:25:24.915Z,59.89
2022-09-28T09:28:12.592Z,65.89
2022-09-28T09:30:53.005Z,70.64
2022-09-28T09:33:42.772Z,57.59
2022-09-28T09:36:58.847Z,57.18
2022-09-28T09:40:06.061Z,59.50
2022-09-28T09:43:29.510Z,64.55
2022-09-28T09:46:28.813Z,70.52
2022-09-28T09:49:11.866Z,71.08
2022-09-28T09:51:46.640Z,61.85
2022-09-28T09:54:22.070Z,56.23
2022-09-28T09:56:56.762Z,51.10
2022-09-28T09:59:50.224Z,46.16
2022-09-28T10:02:34.318Z,44.59
2022-09-28T10:05:23.651Z,42.55
2022-09-28T10:07:58.104Z,40.57
2022-09-28T10:10:29.918Z,40.42
2022-09-28T10:13:13.495Z,40.31
2022-09-28T10:15:45.353Z,39.66
2022-09-28T10:18:39.915Z,37.62
2022-09-28T10:21:27.051Z,37.24
2022-09-28T10:24:02.551Z,35.26
2022-09-28T10:26:34.863Z,33.98
2022-09-28T10:29:09.316Z,35.21
2022-09-28T10:31:41.985Z,35.19
2022-09-28T10:34:30.788Z,35.72
2022-09-28T10:37:12.215Z,41.68
2022-09-28T10:39:59.250Z,40.76
2022-09-28T10:42:36.285Z,40.95
2022-09-28T10:45:36.945Z,38.98
2022-09-28T10:48:17.617Z,39.57
2022-09-28T10:51:07.104Z,41.53
2022-09-28T10:55:02.183Z,45.98
2022-09-28T10:57:56.231Z,45.05
2022-09-28T11:00:40.098Z,45.81
2022-09-28T11:03:24.397Z,45.63
2022-09-28T11:06:17.046Z,49.72
2022-09-28T11:08:46.284Z,51.50
2022-09-28T11:11:20.983Z,52.44
2022-09-28T11:14:00.571Z,52.78
2022-09-28T11:16:34.554Z,53.76
2022-09-28T11:19:07.569Z,57.18
2022-09-28T11:21:45.990Z,60.19
2022-09-28T11:24:34.623Z,59.43
2022-09-28T11:27:06.473Z,59.40
2022-09-28T11:29:40.130Z,60.20
2022-09-28T11:32:32.048Z,60.41
2022-09-28T11:35:38.523Z,61.00
2022-09-28T11:38:41.994Z,63.80
2022-09-28T11:41:50.898Z,60.95
2022-09-28T11:44:39.329Z,60.81
2022-09-28T11:47:37.764Z,60.63
2022-09-28T11:50:24.377Z,59.07
2022-09-28T11:53:02.669Z,59.24
2022-09-28T11:55:37.444Z,59.72
2022-09-28T11:58:12.822Z,59.35
2022-09-28T12:00:47.575Z,59.10
2022-09-28T12:03:19.342Z,58.61
2022-09-28T12:05:53.181Z,60.76
2022-09-28T12:08:27.295Z,63.52
2022-09-28T12:11:10.793Z,70.66
2022-09-28T12:14:04.998Z,64.84
2022-09-28T12:17:04.956Z,60.49
2022-09-28T12:19:58.141Z,61.63
2022-09-28T12:22:33.249Z,61.68
2022-09-28T12:25:04.117Z,59.04
2022-09-28T12:27:41.241Z,55.03
2022-09-28T12:30:16.334Z,51.02
2022-09-28T12:32:53.799Z,53.48
2022-09-28T12:35:44.196Z,54.51
2022-09-28T12:38:31.840Z,53.39
2022-09-28T12:41:09.464Z,53.19
2022-09-28T12:43:54.505Z,51.99
2022-09-28T12:46:48.918Z,50.18
2022-09-28T12:50:27.254Z,50.77
2022-09-28T12:52:33.959Z,53.25
2022-09-28T12:55:29.045Z,53.23
2022-09-28T12:58:00.627Z,53.63
2022-09-28T13:00:37.217Z,53.09
2022-09-28T13:03:45.601Z,55.41
2022-09-28T13:06:26.451Z,55.80
2022-09-28T13:09:07.889Z,54.06
2022-09-28T13:11:45.004Z,53.35
2022-09-28T13:14:44.504Z,57.08
2022-09-28T13:17:21.409Z,58.81
2022-09-28T13:19:59.190Z,57.27
2022-09-28T13:22:44.154Z,62.08
2022-09-28T13:25:17.613Z,55.99
2022-09-28T13:27:53.033Z,59.23
2022-09-28T13:30:21.040Z,56.32
2022-09-28T13:32:51.052Z,56.76
2022-09-28T13:35:22.179Z,58.02
2022-09-28T13:38:31.285Z,59.25
2022-09-28T13:41:20.924Z,56.99
2022-09-28T13:44:13.928Z,64.19
2022-09-28T13:46:53.499Z,67.38
2022-09-28T13:49:25.993Z,66.70
2022-09-28T13:52:05.228Z,70.34
2022-09-28T13:54:51.339Z,63.35
2022-09-28T13:57:27.525Z,63.07
2022-09-28T14:00:16.436Z,67.67
2022-09-28T14:02:48.366Z,61.21
2022-09-28T14:05:46.369Z,60.93
2022-09-28T14:08:33.774Z,58.21
2022-09-28T14:11:47.799Z,59.03
2022-09-28T14:14:46.441Z,61.00
2022-09-28T14:17:50.421Z,63.95
2022-09-28T14:20:23.523Z,58.86
2022-09-28T14:23:03.063Z,56.24
2022-09-28T14:25:33.060Z,59.17
2022-09-28T14:28:08.743Z,56.45
2022-09-28T14:30:49.792Z,60.65
2022-09-28T14:33:26.837Z,57.88
2022-09-28T14:35:58.238Z,59.42
2022-09-28T14:39:07.401Z,59.80
2022-09-28T14:41:39.046Z,61.22
2022-09-28T14:44:09.196Z,59.19
2022-09-28T14:46:42.880Z,58.75
2022-09-28T14:49:51.366Z,57.83
2022-09-28T14:52:47.601Z,57.42
2022-09-28T14:55:18.941Z,58.28
2022-09-28T14:57:56.625Z,58.99
2022-09-28T15:00:27.296Z,59.06
2022-09-28T15:03:03.135Z,59.70
2022-09-28T15:05:37.021Z,62.17
2022-09-28T15:08:07.999Z,61.98
2022-09-28T15:10:39.314Z,62.11
2022-09-28T15:13:20.812Z,62.59
2022-09-28T15:15:52.204Z,64.04
2022-09-28T15:18:49.344Z,62.64
2022-09-28T15:21:17.656Z,62.04
2022-09-28T15:23:47.226Z,63.50
2022-09-28T15:26:27.358Z,62.47
2022-09-28T15:28:56.236Z,63.63
2022-09-28T15:31:27.988Z,63.10
2022-09-28T15:34:15.382Z,62.83
2022-09-28T15:36:47.186Z,64.13
2022-09-28T15:39:19.937Z,63.50
2022-09-28T15:41:51.000Z,63.19
2022-09-28T15:44:32.903Z,63.77
2022-09-28T15:47:13.800Z,65.63
2022-09-28T15:49:47.828Z,65.75
2022-09-28T15:56:10.034Z,65.76
2022-09-28T15:58:39.907Z,65.17
2022-09-28T16:01:24.590Z,64.05
2022-09-28T16:03:52.652Z,64.86
2022-09-28T16:06:21.301Z,65.96
2022-09-28T16:08:49.599Z,67.57
2022-09-28T16:11:24.237Z,68.07
2022-09-28T16:14:01.565Z,65.56
2022-09-28T16:16:41.167Z,65.83
2022-09-28T16:19:24.125Z,67.08
2022-09-28T16:21:55.751Z,69.93
2022-09-28T16:24:25.653Z,71.44
2022-09-28T16:27:02.696Z,72.76
2022-09-28T16:29:39.670Z,75.42
2022-09-28T16:32:41.497Z,77.15
2022-09-28T16:35:31.918Z,76.74
2022-09-28T16:38:03.578Z,78.00
2022-09-28T16:40:34.199Z,75.79
2022-09-28T16:43:06.967Z,78.34
2022-09-28T16:45:36.805Z,80.08
2022-09-28T16:48:05.469Z,80.40
2022-09-28T16:50:33.640Z,80.47
2022-09-28T16:53:32.591Z,80.67
2022-09-28T16:56:01.609Z,79.10
2022-09-28T16:58:31.977Z,79.19
2022-09-28T17:01:01.074Z,79.04
2022-09-28T17:03:29.895Z,78.62
2022-09-28T17:05:58.190Z,79.50
2022-09-28T17:08:26.418Z,80.30
2022-09-28T17:11:14.500Z,82.44
2022-09-28T17:13:46.502Z,84.14
2022-09-28T17:16:17.708Z,85.59
2022-09-28T17:18:49.115Z,90.62
2022-09-28T17:21:21.885Z,90.29
2022-09-28T17:23:50.848Z,90.33
2022-09-28T17:26:44.345Z,90.30
2022-09-28T17:29:16.078Z,91.13
2022-09-28T17:31:47.816Z,93.27
2022-09-28T17:34:17.118Z,90.09
2022-09-28T17:36:45.841Z,91.11
2022-09-28T17:39:15.429Z,91.46
2022-09-28T17:41:43.833Z,89.06
2022-09-28T17:44:14.968Z,91.46
2022-09-28T17:46:49.662Z,89.74
2022-09-28T17:49:18.624Z,89.03
2022-09-28T17:51:46.806Z,89.16
2022-09-28T17:54:16.735Z,91.02
2022-09-28T17:56:45.570Z,91.02
2022-09-28T17:59:18.901Z,92.61
2022-09-28T18:01:49.090Z,93.62
2022-09-28T18:04:39.816Z,93.84
2022-09-28T18:07:05.954Z,94.38
2022-09-28T18:09:36.885Z,94.10
2022-09-28T18:12:06.818Z,93.52
2022-09-28T18:14:35.698Z,94.63
2022-09-28T18:17:05.206Z,95.54
2022-09-28T18:19:33.220Z,96.72
2022-09-28T18:22:01.785Z,97.42
2022-09-28T18:24:35.550Z,97.64
2022-09-28T18:27:04.021Z,98.22
2022-09-28T18:29:33.420Z,98.48
2022-09-28T18:32:05.414Z,100.00
2022-09-28T18:34:37.190Z,98.71
2022-09-28T18:37:06.332Z,99.43
2022-09-28T18:39:39.862Z,100.00
2022-09-28T18:42:08.129Z,100.00
2022-09-28T18:44:36.338Z,99.77
2022-09-28T18:47:06.878Z,100.00
2022-09-28T18:49:37.822Z,100.00
2022-09-28T18:52:06.105Z,100.00
2022-09-28T18:54:36.631Z,99.52
2022-09-28T18:57:05.780Z,100.00
2022-09-28T18:59:34.080Z,100.00
2022-09-28T19:02:02.417Z,100.00
2022-09-28T19:04:32.065Z,100.00
2022-09-28T19:07:00.169Z,100.00
2022-09-28T19:09:30.495Z,100.00
2022-09-28T19:11:58.488Z,100.00
2022-09-28T19:14:26.490Z,100.00
2022-09-28T19:16:54.690Z,100.00
2022-09-28T19:19:22.673Z,100.00
2022-09-28T19:21:52.076Z,100.00
2022-09-28T19:24:29.754Z,100.00
2022-09-28T19:27:00.246Z,100.00
2022-09-28T19:29:28.111Z,100.00
2022-09-28T19:31:59.225Z,100.00
2022-09-28T19:34:29.932Z,100.00
2022-09-28T19:37:03.788Z,100.00
2022-09-28T19:39:31.798Z,100.00
2022-09-28T19:42:01.164Z,100.00
2022-09-28T19:44:32.418Z,100.00
2022-09-28T19:47:32.745Z,100.00
2022-09-28T19:50:00.917Z,100.00
2022-09-28T19:52:30.291Z,100.00
2022-09-28T19:55:00.251Z,100.00
2022-09-28T19:57:32.458Z,100.00
2022-09-28T20:00:03.473Z,100.00
2022-09-28T20:02:35.510Z,100.00
2022-09-28T20:05:03.609Z,100.00
2022-09-28T20:07:34.802Z,100.00
2022-09-28T20:10:02.969Z,100.00
2022-09-28T20:12:33.602Z,100.00
2022-09-28T20:15:01.604Z,100.00
2022-09-28T20:17:30.001Z,100.00
2022-09-28T20:19:58.561Z,100.00
2022-09-28T20:22:26.791Z,100.00
2022-09-28T20:24:56.238Z,100.00
2022-09-28T20:27:27.108Z,100.00
2022-09-28T20:29:55.178Z,100.00
2022-09-28T20:32:23.159Z,100.00
2022-09-28T20:34:51.115Z,100.00
2022-09-28T20:37:19.406Z,100.00
2022-09-28T20:39:47.515Z,100.00
2022-09-28T20:42:16.771Z,100.00
2022-09-28T20:44:44.717Z,100.00
2022-09-28T20:47:12.922Z,100.00
2022-09-28T20:49:40.941Z,100.00
2022-09-28T20:52:08.982Z,100.00
2022-09-28T20:57:17.330Z,100.00
2022-09-28T20:59:45.481Z,100.00
2022-09-28T21:02:18.728Z,100.00
2022-09-28T21:04:47.016Z,100.00
2022-09-28T21:07:17.491Z,100.00
2022-09-28T21:09:45.458Z,100.00
2022-09-28T21:12:15.420Z,100.00
2022-09-28T21:14:43.353Z,100.00
2022-09-28T21:17:11.742Z,100.00
2022-09-28T21:19:39.900Z,100.00
2022-09-28T21:22:07.814Z,100.00
2022-09-28T21:24:35.968Z,100.00
2022-09-28T21:27:04.165Z,100.00
2022-09-28T21:29:33.560Z,100.00
2022-09-28T21:32:03.865Z,100.00
2022-09-28T21:34:35.854Z,100.00
2022-09-28T21:37:06.619Z,100.00
2022-09-28T21:39:34.769Z,100.00
2022-09-28T21:42:02.644Z,100.00
2022-09-28T21:44:30.935Z,100.00
2022-09-28T21:47:00.443Z,100.00
2022-09-28T21:49:28.381Z,100.00
2022-09-28T21:51:56.587Z,100.00
2022-09-28T21:54:24.547Z,100.00
2022-09-28T21:56:52.557Z,100.00
2022-09-28T21:59:20.894Z,100.00
2022-09-28T22:01:48.908Z,100.00
2022-09-28T22:04:18.932Z,100.00
2022-09-28T22:06:49.317Z,100.00
2022-09-28T22:09:17.284Z,100.00
2022-09-28T22:11:45.291Z,100.00
2022-09-28T22:14:13.531Z,100.00
2022-09-28T22:16:41.637Z,100.00
2022-09-28T22:19:20.347Z,100.00
2022-09-28T22:21:48.746Z,100.00
2022-09-28T22:24:16.732Z,100.00
2022-09-28T22:26:45.246Z,100.00
2022-09-28T22:29:13.325Z,100.00
2022-09-28T22:31:42.145Z,100.00
2022-09-28T22:34:10.837Z,100.00
2022-09-28T22:36:40.158Z,100.00
2022-09-28T22:39:08.303Z,100.00
2022-09-28T22:41:36.321Z,100.00
2022-09-28T22:44:04.300Z,100.00
2022-09-28T22:46:33.132Z,100.00
2022-09-28T22:49:01.828Z,100.00
2022-09-28T22:51:31.639Z,100.00
2022-09-28T22:54:03.428Z,100.00
2022-09-28T22:56:32.138Z,100.00
2022-09-28T22:59:00.477Z,100.00
2022-09-28T23:01:30.433Z,100.00
2022-09-28T23:03:59.382Z,100.00
2022-09-28T23:06:30.431Z,100.00
2022-09-28T23:08:58.665Z,100.00
2022-09-28T23:11:28.472Z,100.00
2022-09-28T23:13:58.798Z,100.00
2022-09-28T23:16:27.418Z,100.00
2022-09-28T23:18:56.660Z,100.00
2022-09-28T23:21:26.346Z,100.00
2022-09-28T23:23:56.896Z,100.00
2022-09-28T23:26:29.701Z,100.00
2022-09-28T23:29:00.858Z,100.00
2022-09-28T23:31:32.441Z,100.00
2022-09-28T23:34:02.371Z,100.00
2022-09-28T23:36:31.008Z,100.00
2022-09-28T23:38:59.918Z,100.00
2022-09-28T23:41:29.217Z,100.00
2022-09-28T23:43:59.902Z,100.00
2022-09-28T23:46:27.885Z,100.00
2022-09-28T23:48:56.595Z,100.00
2022-09-28T23:51:24.561Z,100.00
2022-09-28T23:53:52.721Z,100.00
2022-09-28T23:56:21.255Z,100.00
2022-09-28T23:58:50.942Z,100.00
